Time;durP1;ratioP1;P1;durP2;ratioP2;P2;SDS_P1;SDS_P2;PMS_P1;PMS_P2;Temp;Humidity;BMP_temperature;BMP_pressure;BME280_temperature;BME280_humidity;BME280_pressure;Samples;Min_cycle;Max_cycle;Signal;HPM_P1;HPM_P2
2022/08/14 00:04:09;;;;;;;5.13;4.72;;;;;;;25.00;30.78;100197.97;10573775;28;20182;-79
2022/08/14 00:09:31;;;;;;;5.72;5.20;;;;;;;24.47;31.85;100202.53;10569749;28;20494;-78
2022/08/14 00:14:53;;;;;;;5.22;4.68;;;;;;;24.34;31.47;100186.25;10586109;27;20621;-79
2022/08/14 00:20:19;;;;;;;5.68;5.00;;;;;;;24.28;32.12;100183.06;10604865;27;20233;-78
2022/08/14 00:25:43;;;;;;;7.10;4.55;;;;;;;24.17;32.39;100174.56;10572900;28;20182;-78
2022/08/14 00:31:05;;;;;;;5.47;4.95;;;;;;;24.41;31.65;100175.47;10572452;28;20412;-78
2022/08/14 00:36:28;;;;;;;6.32;5.40;;;;;;;24.09;32.42;100163.56;10569090;28;20222;-78
2022/08/14 00:41:50;;;;;;;6.00;4.95;;;;;;;23.59;33.49;100176.50;10554891;28;20198;-78
2022/08/14 00:47:13;;;;;;;7.88;5.03;;;;;;;23.51;34.21;100168.41;10586360;28;20186;-78
2022/08/14 00:52:36;;;;;;;7.55;5.50;;;;;;;23.47;33.53;100167.63;10571948;28;20233;-78
2022/08/14 01:03:40;;;;;;;7.03;5.05;;;;;;;23.95;32.92;100148.13;10573758;28;20211;-78
2022/08/14 01:09:02;;;;;;;7.15;5.18;;;;;;;23.56;34.08;100150.66;10570916;28;20222;-78
2022/08/14 01:14:24;;;;;;;5.93;5.32;;;;;;;23.24;34.42;100142.41;10585818;28;20205;-80
2022/08/14 01:25:28;;;;;;;7.38;6.00;;;;;;;23.01;34.88;100139.34;10573113;28;20679;-78
2022/08/14 01:30:54;;;;;;;7.43;6.55;;;;;;;22.09;36.65;100129.41;10570415;28;20656;-78
2022/08/14 01:36:22;;;;;;;7.28;6.57;;;;;;;22.10;37.02;100125.31;10539604;28;20225;-87
2022/08/14 01:41:55;;;;;;;8.35;7.43;;;;;;;21.91;37.53;100122.94;10552701;28;20194;-79
2022/08/14 01:47:17;;;;;;;10.45;7.93;;;;;;;21.73;38.28;100120.19;10552939;28;20235;-77
2022/08/14 01:52:42;;;;;;;9.52;8.50;;;;;;;22.04;36.99;100109.75;10570203;28;20222;-78
2022/08/14 01:58:04;;;;;;;10.57;7.72;;;;;;;21.78;37.52;100093.91;10551597;28;20270;-78
2022/08/14 02:03:38;;;;;;;7.72;6.95;;;;;;;21.39;38.65;100096.97;10570534;28;20231;-78
2022/08/14 02:09:02;;;;;;;8.10;7.30;;;;;;;21.38;38.96;100086.72;10556746;28;20282;-78
2022/08/14 02:14:24;;;;;;;8.43;7.03;;;;;;;21.57;38.25;100077.63;10546889;27;20217;-78
2022/08/14 02:19:46;;;;;;;7.35;6.40;;;;;;;21.49;38.66;100073.97;10582583;27;20210;-78
2022/08/14 02:25:09;;;;;;;10.05;6.72;;;;;;;21.72;38.33;100070.59;10577459;28;20193;-78
2022/08/14 02:30:32;;;;;;;6.97;6.28;;;;;;;21.81;37.96;100068.06;10563841;28;20190;-78
2022/08/14 02:35:55;;;;;;;7.53;6.70;;;;;;;21.94;37.60;100047.50;10592141;28;20598;-77
2022/08/14 02:41:17;;;;;;;7.28;6.57;;;;;;;21.74;38.15;100045.16;10558972;28;20617;-78
2022/08/14 02:46:43;;;;;;;7.28;6.07;;;;;;;22.03;38.12;100044.97;10562664;28;20246;-78
2022/08/14 02:52:06;;;;;;;7.18;6.47;;;;;;;21.78;38.33;100034.47;10577308;28;20245;-78
2022/08/14 02:57:28;;;;;;;7.53;6.82;;;;;;;21.82;38.54;100035.28;10581932;27;20221;-78
2022/08/14 03:02:50;;;;;;;7.28;6.57;;;;;;;22.03;38.23;100033.50;10575070;27;20902;-78
2022/08/14 03:08:13;;;;;;;9.90;6.72;;;;;;;22.17;37.69;100028.47;10598039;27;20475;-77
2022/08/14 03:13:38;;;;;;;8.27;7.43;;;;;;;22.13;38.22;100026.84;10561623;28;20250;-78
2022/08/14 03:19:01;;;;;;;9.77;7.03;;;;;;;22.20;37.94;100032.56;10575867;28;20185;-79
2022/08/14 03:24:24;;;;;;;9.77;7.20;;;;;;;22.10;38.29;100030.59;10575234;28;20219;-78
2022/08/14 03:29:47;;;;;;;7.18;6.57;;;;;;;22.43;37.54;100029.06;10575340;28;20185;-78
2022/08/14 03:35:10;;;;;;;7.80;7.00;;;;;;;22.15;38.36;100035.88;10575009;28;20227;-78
2022/08/14 03:40:32;;;;;;;7.50;6.80;;;;;;;21.78;39.17;100034.47;10589126;28;20223;-78
2022/08/14 03:45:54;;;;;;;11.98;7.32;;;;;;;22.02;38.56;100032.69;10589535;28;20207;-78
2022/08/14 03:51:16;;;;;;;8.10;7.40;;;;;;;21.84;39.26;100032.81;10589399;28;20578;-78
2022/08/14 03:56:43;;;;;;;7.68;6.97;;;;;;;22.00;38.76;100022.84;10588716;28;20217;-78
2022/08/14 04:02:05;;;;;;;10.32;7.40;;;;;;;21.57;39.79;100023.16;10573968;28;20193;-78
2022/08/14 04:07:27;;;;;;;8.13;7.43;;;;;;;21.90;38.91;100018.00;10570338;28;20271;-79
2022/08/14 04:12:49;;;;;;;8.18;7.28;;;;;;;21.11;40.75;100024.16;10591594;27;20225;-78
2022/08/14 04:18:12;;;;;;;9.30;8.07;;;;;;;21.67;39.60;100015.69;10607165;27;20509;-82
2022/08/14 04:23:35;;;;;;;8.52;7.63;;;;;;;21.84;39.35;100015.59;10595566;27;20475;-78
2022/08/14 04:28:58;;;;;;;7.95;7.25;;;;;;;21.55;40.08;100024.78;10587658;28;20215;-79
2022/08/14 04:34:20;;;;;;;9.13;8.23;;;;;;;21.50;40.17;100023.16;10571931;28;20231;-78
2022/08/14 04:45:24;;;;;;;9.60;8.60;;;;;;;21.38;40.97;100020.78;10587005;28;20186;-78
2022/08/14 04:50:48;;;;;;;9.95;8.85;;;;;;;21.22;40.87;100020.41;10557311;27;20196;-78
2022/08/14 04:56:21;;;;;;;9.75;8.43;;;;;;;21.06;41.77;100015.19;10569383;27;20210;-78
2022/08/14 05:01:43;;;;;;;9.45;8.65;;;;;;;21.10;41.62;100016.78;10583000;28;20242;-78
2022/08/14 05:07:05;;;;;;;10.93;8.88;;;;;;;21.22;41.66;100011.81;10564038;28;20207;-78
2022/08/14 05:12:28;;;;;;;9.60;8.60;;;;;;;20.81;42.60;100000.94;10569965;27;20221;-78
2022/08/14 05:17:50;;;;;;;11.18;9.07;;;;;;;21.12;41.99;99994.25;10567991;28;20239;-78
2022/08/14 05:23:17;;;;;;;9.65;8.15;;;;;;;21.30;42.04;100001.97;10588144;27;20190;-78
2022/08/14 05:28:44;;;;;;;10.48;8.38;;;;;;;21.26;42.16;100010.56;10566931;28;20490;-79
2022/08/14 05:34:08;;;;;;;9.48;8.48;;;;;;;21.85;40.49;100000.00;10563319;27;20479;-78
2022/08/14 05:39:30;;;;;;;11.77;9.40;;;;;;;21.71;41.09;99994.38;10568958;28;20251;-78
2022/08/14 05:44:53;;;;;;;10.43;8.57;;;;;;;21.73;41.80;100000.47;10598598;27;20250;-79
2022/08/14 05:50:15;;;;;;;10.50;9.40;;;;;;;22.12;40.87;100003.06;10568928;27;20197;-78
2022/08/14 05:55:37;;;;;;;10.05;9.15;;;;;;;22.31;40.63;99987.34;10574409;28;20267;-78
2022/08/14 06:01:00;;;;;;;10.90;9.90;;;;;;;22.13;40.92;99993.22;10582339;28;20193;-78
2022/08/14 06:06:22;;;;;;;9.73;8.73;;;;;;;21.99;41.16;99992.56;10559255;28;20199;-79
2022/08/14 06:11:44;;;;;;;9.98;8.77;;;;;;;22.52;40.70;99992.84;10563711;28;20221;-78
2022/08/14 06:17:06;;;;;;;11.95;9.30;;;;;;;22.29;40.87;99997.59;10575153;28;20216;-78
2022/08/14 06:22:28;;;;;;;9.77;8.82;;;;;;;22.80;39.91;99991.75;10567935;28;20263;-78
2022/08/14 06:27:50;;;;;;;10.50;9.50;;;;;;;22.69;39.42;99990.25;10594676;28;20189;-78
2022/08/14 06:33:14;;;;;;;9.73;8.88;;;;;;;22.98;39.65;99974.31;10594222;28;20190;-78
2022/08/14 06:38:36;;;;;;;12.00;9.50;;;;;;;22.84;39.74;99983.09;10573920;28;20274;-78
2022/08/14 06:43:58;;;;;;;10.68;8.98;;;;;;;22.89;40.38;99971.16;10588653;28;20197;-78
2022/08/14 06:49:20;;;;;;;9.63;8.73;;;;;;;23.56;38.49;99980.91;10577324;28;20475;-78
2022/08/14 06:54:43;;;;;;;10.05;8.98;;;;;;;23.05;39.61;99971.31;10599301;27;20205;-87
2022/08/14 07:00:28;;;;;;;11.02;8.50;;;;;;;23.72;38.42;99966.72;10580135;27;20201;-78
2022/08/14 07:05:50;;;;;;;9.88;9.00;;;;;;;23.88;38.05;99969.75;10575163;27;20542;-78
2022/08/14 07:11:12;;;;;;;9.23;8.30;;;;;;;24.07;38.02;99968.19;10598650;27;20282;-78
2022/08/14 07:16:35;;;;;;;8.88;8.07;;;;;;;24.31;36.67;99966.19;10564843;27;20221;-85
2022/08/14 07:21:57;;;;;;;9.18;8.38;;;;;;;24.07;37.93;99965.31;10578333;27;20602;-77
2022/08/14 07:27:19;;;;;;;14.75;12.93;;;;;;;24.52;37.48;99962.88;10589116;27;20189;-86
2022/08/14 07:32:42;;;;;;;12.63;11.38;;;;;;;24.54;36.42;99966.16;10566038;27;20255;-78
2022/08/14 07:38:05;;;;;;;8.88;8.07;;;;;;;24.71;36.00;99951.84;10568624;27;20255;-78
2022/08/14 07:43:28;;;;;;;8.88;8.07;;;;;;;24.70;36.55;99950.22;10569474;27;20593;-80
2022/08/14 07:48:50;;;;;;;8.07;7.38;;;;;;;25.17;35.25;99950.88;10591350;27;20250;-80
2022/08/14 07:54:12;;;;;;;11.77;10.55;;;;;;;25.18;35.61;99940.97;10553754;27;20271;-78
2022/08/14 07:59:34;;;;;;;8.80;8.00;;;;;;;25.12;35.64;99932.00;10538529;27;20261;-80
2022/08/14 08:04:58;;;;;;;11.75;10.63;;;;;;;25.41;35.48;99935.09;10531332;28;20675;-80
2022/08/14 08:10:31;;;;;;;10.40;9.38;;;;;;;25.75;35.19;99910.81;10524126;27;20249;-82
2022/08/14 08:15:56;;;;;;;9.88;8.63;;;;;;;25.71;35.10;99911.69;10520960;28;20250;-79
2022/08/14 08:21:18;;;;;;;8.63;7.82;;;;;;;26.00;34.48;99903.16;10528141;28;20291;-82
2022/08/14 08:26:40;;;;;;;8.90;8.00;;;;;;;26.14;34.14;99895.38;10579394;28;20193;-81
2022/08/14 08:32:02;;;;;;;9.43;8.45;;;;;;;26.41;33.94;99898.75;10563525;28;20206;-81
2022/08/14 08:37:27;;;;;;;9.27;8.13;;;;;;;26.29;34.61;99900.31;10559839;27;20302;-86
2022/08/14 08:42:50;;;;;;;8.13;7.38;;;;;;;26.28;34.16;99892.09;10548509;28;20193;-84
2022/08/14 08:48:12;;;;;;;9.68;8.68;;;;;;;26.66;33.15;99874.94;10546319;28;20251;-81
2022/08/14 08:53:35;;;;;;;9.43;8.52;;;;;;;26.96;33.32;99874.44;10541428;28;20221;-87
2022/08/14 08:58:58;;;;;;;8.73;8.02;;;;;;;26.96;32.87;99867.81;10570144;27;20264;-81
2022/08/14 09:04:20;;;;;;;9.73;7.03;;;;;;;26.87;33.62;99876.38;10557107;27;20198;-80
2022/08/14 09:09:52;;;;;;;8.43;7.50;;;;;;;27.04;32.74;99878.75;10556820;27;20669;-80
2022/08/14 09:15:15;;;;;;;8.70;7.82;;;;;;;27.50;32.43;99876.47;10562145;27;20197;-86
2022/08/14 09:20:40;;;;;;;9.43;8.63;;;;;;;27.07;32.12;99880.69;10564182;28;20490;-85
2022/08/14 09:26:03;;;;;;;8.43;7.63;;;;;;;27.17;31.72;99875.03;10561120;28;20594;-83
2022/08/14 09:31:26;;;;;;;7.90;7.13;;;;;;;27.52;31.33;99864.41;10573645;27;20225;-81
2022/08/14 09:37:14;;;;;;;8.50;7.32;;;;;;;27.73;30.32;99855.00;10536403;28;20241;-80
2022/08/14 09:43:13;;;;;;;8.75;7.95;;;;;;;27.64;30.62;99855.72;10542930;27;20285;-87
2022/08/14 09:48:37;;;;;;;7.50;6.13;;;;;;;27.23;30.18;99853.75;10535708;28;20225;-86
2022/08/14 09:54:06;;;;;;;6.57;5.97;;;;;;;28.53;28.99;99840.16;10568266;28;20226;-80
2022/08/14 09:59:39;;;;;;;6.35;5.85;;;;;;;28.60;28.19;99846.53;10552269;28;20249;-80
2022/08/14 10:05:01;;;;;;;6.25;5.50;;;;;;;28.77;27.28;99833.44;10555352;28;20266;-80
2022/08/14 10:10:31;;;;;;;5.55;5.15;;;;;;;28.95;27.01;99823.22;10565471;28;20669;-81
2022/08/14 10:15:59;;;;;;;6.38;5.88;;;;;;;29.47;27.61;99805.72;10569898;28;20233;-81
2022/08/14 10:21:22;;;;;;;7.65;5.63;;;;;;;28.26;28.19;99801.00;10556981;28;20199;-81
2022/08/14 10:26:53;;;;;;;6.03;5.38;;;;;;;29.43;27.25;99775.22;10555525;28;20263;-84
2022/08/14 10:32:15;;;;;;;6.38;5.38;;;;;;;29.41;27.62;99769.06;10550058;27;20290;-81
2022/08/14 10:37:40;;;;;;;5.78;5.28;;;;;;;28.86;27.96;99777.56;10565575;27;20245;-88
2022/08/14 10:43:13;;;;;;;5.95;5.35;;;;;;;28.70;27.92;99764.13;10564066;28;20897;-85
2022/08/14 10:48:36;;;;;;;5.93;5.30;;;;;;;29.54;27.00;99764.75;10565622;28;20255;-80
2022/08/14 10:54:00;;;;;;;6.30;5.70;;;;;;;28.96;27.58;99755.22;10554206;27;20201;-88
2022/08/14 10:59:22;;;;;;;6.30;5.80;;;;;;;29.12;27.59;99754.97;10558758;28;20291;-87
2022/08/14 11:05:11;;;;;;;6.15;5.65;;;;;;;29.78;26.66;99744.63;10565770;27;20282;-80
2022/08/14 11:10:49;;;;;;;7.82;5.97;;;;;;;29.85;27.51;99744.34;10571311;28;20260;-87
2022/08/14 11:16:15;;;;;;;6.82;6.20;;;;;;;29.09;28.03;99738.50;10562966;27;20245;-82
2022/08/14 11:21:40;;;;;;;6.90;6.20;;;;;;;29.44;27.46;99728.28;10562227;28;20235;-89
2022/08/14 11:27:04;;;;;;;6.15;5.55;;;;;;;28.66;28.32;99722.81;10548364;28;20274;-80
2022/08/14 11:32:28;;;;;;;11.98;7.15;;;;;;;29.84;27.38;99719.47;10562404;28;20234;-81
2022/08/14 11:37:56;;;;;;;8.02;5.82;;;;;;;29.82;27.60;99709.63;10564907;27;20310;-81
2022/08/14 11:43:18;;;;;;;6.32;5.70;;;;;;;29.97;26.21;99703.97;10549876;28;20234;-83
2022/08/14 11:48:45;;;;;;;6.55;5.80;;;;;;;29.87;26.21;99691.56;10570802;27;20282;-87
2022/08/14 11:54:09;;;;;;;6.18;5.50;;;;;;;30.41;25.55;99681.97;10558264;28;20772;-81
2022/08/14 11:59:32;;;;;;;6.15;5.65;;;;;;;30.66;25.76;99677.84;10553157;27;20294;-80
2022/08/14 12:04:54;;;;;;;6.95;6.05;;;;;;;30.93;25.39;99674.81;10576255;27;20284;-83
2022/08/14 12:10:19;;;;;;;7.50;5.47;;;;;;;30.45;25.28;99681.75;10557234;28;20249;-81
2022/08/14 12:15:48;;;;;;;5.43;5.00;;;;;;;30.31;26.22;99677.44;10574247;28;20282;-79
2022/08/14 12:21:16;;;;;;;6.40;5.18;;;;;;;30.62;25.47;99671.41;10549393;27;20245;-81
2022/08/14 12:26:40;;;;;;;5.32;4.93;;;;;;;29.67;26.75;99676.69;10552878;27;20206;-83
2022/08/14 12:32:05;;;;;;;6.03;5.53;;;;;;;30.30;25.20;99669.22;10576736;27;20334;-80
2022/08/14 12:37:29;;;;;;;5.88;5.47;;;;;;;29.69;25.97;99659.59;10560154;28;20630;-85
2022/08/14 12:42:52;;;;;;;6.20;5.60;;;;;;;30.34;25.51;99649.50;10560202;27;20225;-82
2022/08/14 12:48:16;;;;;;;5.93;5.32;;;;;;;30.02;25.60;99648.91;10536152;27;20544;-86
2022/08/14 12:53:39;;;;;;;5.20;4.70;;;;;;;30.28;24.62;99631.13;10559455;28;21810;-84
2022/08/14 12:59:03;;;;;;;5.40;4.90;;;;;;;30.65;25.02;99620.16;10560745;28;20262;-80
2022/08/14 13:04:30;;;;;;;5.00;4.60;;;;;;;31.88;23.81;99612.00;10568821;27;20186;-87
2022/08/14 13:09:57;;;;;;;5.30;4.90;;;;;;;32.16;23.70;99587.06;10554923;27;20253;-88
2022/08/14 13:15:19;;;;;;;5.05;4.65;;;;;;;31.23;24.64;99587.63;10563777;28;20193;-86
2022/08/14 13:20:41;;;;;;;5.13;4.72;;;;;;;32.32;22.90;99577.84;10569265;27;20249;-84
2022/08/14 13:26:05;;;;;;;7.30;5.22;;;;;;;32.02;23.48;99569.59;10554741;27;21021;-80
2022/08/14 13:31:29;;;;;;;5.57;5.15;;;;;;;31.66;24.16;99568.66;10560703;28;20275;-82
2022/08/14 13:36:55;;;;;;;6.40;5.07;;;;;;;32.13;24.14;99546.44;10559609;27;20249;-86
2022/08/14 13:42:20;;;;;;;4.60;4.30;;;;;;;31.31;24.49;99545.19;10557189;28;20544;-80
2022/08/14 13:47:42;;;;;;;5.03;4.63;;;;;;;32.35;22.40;99535.19;10575878;28;20193;-80
2022/08/14 13:53:06;;;;;;;5.70;3.92;;;;;;;31.21;23.41;99529.13;10577635;28;20193;-85
2022/08/14 13:58:29;;;;;;;5.20;4.75;;;;;;;31.77;23.71;99524.34;10544649;28;20245;-86
2022/08/14 14:03:54;;;;;;;5.57;5.05;;;;;;;31.81;23.20;99505.38;10551852;28;20217;-81
2022/08/14 14:09:27;;;;;;;5.65;5.13;;;;;;;32.14;22.97;99496.38;10582471;27;20286;-82
2022/08/14 14:14:50;;;;;;;5.22;4.82;;;;;;;32.20;23.02;99505.22;10561042;28;20243;-86
2022/08/14 14:20:17;;;;;;;5.10;4.60;;;;;;;31.67;22.98;99499.53;10553868;28;20262;-86
2022/08/14 14:25:42;;;;;;;7.15;4.70;;;;;;;31.63;23.97;99500.53;10571406;27;20673;-80
2022/08/14 14:31:04;;;;;;;4.65;4.25;;;;;;;31.42;24.00;99490.09;10568063;28;20763;-86
2022/08/14 14:36:29;;;;;;;4.55;4.25;;;;;;;31.80;23.79;99477.53;10563298;28;20872;-80
2022/08/14 14:41:54;;;;;;;5.30;4.78;;;;;;;30.90;24.54;99480.81;10552487;27;20201;-87
2022/08/14 14:47:20;;;;;;;4.70;4.35;;;;;;;30.54;24.73;99469.47;10567341;27;20221;-86
2022/08/14 14:52:42;;;;;;;4.55;4.15;;;;;;;31.07;24.02;99471.66;10557591;27;20255;-89
2022/08/14 14:58:05;;;;;;;4.63;4.32;;;;;;;31.50;23.73;99476.72;10582947;27;20263;-81
2022/08/14 15:03:27;;;;;;;5.80;4.22;;;;;;;31.49;24.32;99475.13;10570836;27;20274;-83
2022/08/14 15:08:51;;;;;;;4.20;3.83;;;;;;;31.51;22.84;99475.44;10590414;27;20664;-85
2022/08/14 15:14:14;;;;;;;4.38;4.07;;;;;;;31.57;23.56;99476.34;10583799;28;20286;-84
2022/08/14 15:19:36;;;;;;;4.05;3.75;;;;;;;31.96;23.52;99461.66;10577518;27;20248;-84
2022/08/14 15:24:58;;;;;;;4.35;4.05;;;;;;;31.47;23.17;99462.41;10561858;27;20285;-83
2022/08/14 15:30:20;;;;;;;4.25;3.95;;;;;;;31.97;22.32;99451.63;10560948;27;20298;-81
2022/08/14 15:35:45;;;;;;;3.97;3.67;;;;;;;31.46;23.71;99449.13;10590553;27;20198;-79
2022/08/14 15:41:07;;;;;;;3.58;3.38;;;;;;;31.61;22.97;99436.16;10587788;27;20273;-80
2022/08/14 15:46:29;;;;;;;4.40;4.00;;;;;;;32.05;23.55;99426.56;10572176;27;20202;-80
2022/08/14 15:51:52;;;;;;;3.85;3.55;;;;;;;31.06;23.37;99432.22;10585847;27;20551;-80
2022/08/14 15:57:14;;;;;;;4.03;3.67;;;;;;;32.01;22.57;99425.94;10579256;27;20294;-80
2022/08/14 16:02:36;;;;;;;8.70;4.28;;;;;;;31.52;23.06;99424.63;10605546;27;20586;-80
2022/08/14 16:07:58;;;;;;;4.57;3.92;;;;;;;31.67;23.02;99412.13;10592306;27;20201;-83
2022/08/14 16:13:21;;;;;;;3.97;3.65;;;;;;;31.64;23.04;99408.94;10583568;27;20243;-85
2022/08/14 16:18:43;;;;;;;4.70;4.18;;;;;;;31.79;22.75;99408.09;10563909;27;20217;-83
2022/08/14 16:24:05;;;;;;;3.85;3.55;;;;;;;31.13;23.67;99415.16;10586433;27;20193;-83
2022/08/14 16:29:32;;;;;;;4.30;3.90;;;;;;;30.88;23.91;99404.06;10579195;28;20278;-83
2022/08/14 16:34:54;;;;;;;4.30;3.90;;;;;;;31.23;24.32;99410.03;10567185;28;20544;-83
2022/08/14 16:40:16;;;;;;;4.88;4.47;;;;;;;31.36;23.77;99400.97;10570326;27;20310;-84
2022/08/14 16:45:29;;;;;;;4.50;4.13;;;;;;;31.60;23.71;99398.81;10565355;27;20193;-86
2022/08/14 16:50:51;;;;;;;5.28;4.88;;;;;;;31.53;23.51;99390.47;10521618;27;20229;-81
2022/08/14 16:56:21;;;;;;;4.80;4.13;;;;;;;31.83;22.76;99380.38;10562678;27;20274;-83
2022/08/14 17:01:45;;;;;;;4.00;3.70;;;;;;;31.64;24.32;99370.25;10538199;28;20662;-84
2022/08/14 17:07:10;;;;;;;4.65;4.25;;;;;;;31.51;23.07;99373.50;10537878;27;20572;-82
2022/08/14 17:12:32;;;;;;;4.10;3.45;;;;;;;31.17;23.96;99365.47;10536816;27;20876;-82
2022/08/14 17:17:54;;;;;;;3.90;3.60;;;;;;;31.06;24.27;99366.06;10545079;27;20249;-83
2022/08/14 17:23:18;;;;;;;5.28;3.33;;;;;;;30.85;24.05;99368.03;10566502;27;20598;-83
2022/08/14 17:29:02;;;;;;;3.90;3.60;;;;;;;30.87;23.83;99359.59;10531936;27;20190;-83
2022/08/14 17:34:43;;;;;;;4.57;3.90;;;;;;;30.70;25.09;99361.38;10520905;28;20230;-82
2022/08/14 17:40:07;;;;;;;3.70;3.40;;;;;;;30.75;24.20;99354.06;10527060;27;20245;-84
2022/08/14 17:45:33;;;;;;;3.80;3.42;;;;;;;30.53;24.92;99363.97;10539148;28;20221;-84
2022/08/14 17:50:56;;;;;;;4.75;3.47;;;;;;;30.64;25.18;99354.66;10582881;28;20552;-85
2022/08/14 17:56:18;;;;;;;9.75;8.80;;;;;;;30.48;25.16;99360.91;10565626;28;20246;-83
2022/08/14 18:01:40;;;;;;;8.30;4.82;;;;;;;30.38;25.14;99363.09;10575924;27;20698;-84
2022/08/14 18:07:07;;;;;;;4.95;4.10;;;;;;;30.82;24.58;99366.09;10558024;28;20691;-88
2022/08/14 18:12:34;;;;;;;3.72;3.42;;;;;;;30.03;25.60;99357.03;10512243;28;20211;-81
2022/08/14 18:17:56;;;;;;;5.45;3.80;;;;;;;30.77;24.83;99354.38;10511866;28;20318;-85
2022/08/14 18:23:22;;;;;;;5.03;4.53;;;;;;;30.77;24.91;99358.09;10527258;28;20256;-87
2022/08/14 18:28:46;;;;;;;4.13;3.75;;;;;;;30.67;25.51;99353.66;10514872;28;20606;-83
2022/08/14 18:34:19;;;;;;;4.45;3.88;;;;;;;30.48;25.77;99343.47;10539111;28;20544;-87
2022/08/14 18:39:44;;;;;;;4.72;3.75;;;;;;;30.43;25.93;99347.06;10514637;28;20254;-86
2022/08/14 18:45:07;;;;;;;4.00;3.70;;;;;;;30.19;26.16;99350.78;10516569;28;20194;-84
2022/08/14 18:50:31;;;;;;;4.60;4.00;;;;;;;29.96;26.41;99347.88;10500331;28;20194;-87
2022/08/14 18:55:59;;;;;;;4.88;3.90;;;;;;;29.73;27.30;99364.78;10551609;28;20201;-83
2022/08/14 19:01:24;;;;;;;11.70;9.30;;;;;;;29.89;27.18;99366.47;10504940;28;20283;-84
2022/08/14 19:06:47;;;;;;;9.05;5.13;;;;;;;28.88;28.48;99368.06;10538964;28;20245;-85
2022/08/14 19:12:09;;;;;;;7.85;5.97;;;;;;;29.16;26.87;99372.53;10549869;28;20518;-84
2022/08/14 19:17:42;;;;;;;5.13;3.45;;;;;;;28.46;28.11;99377.44;10546200;28;20193;-86
2022/08/14 19:23:14;;;;;;;4.43;3.53;;;;;;;29.00;27.18;99370.81;10554639;28;20190;-85
2022/08/14 19:28:46;;;;;;;4.20;3.80;;;;;;;28.56;27.21;99364.53;10536617;28;20243;-86
2022/08/14 19:34:09;;;;;;;4.15;3.72;;;;;;;28.70;27.08;99369.72;10533765;28;20206;-85
2022/08/14 19:39:48;;;;;;;8.48;6.70;;;;;;;28.98;26.77;99367.59;10542699;28;20299;-86
2022/08/14 19:45:13;;;;;;;4.93;4.47;;;;;;;28.62;27.96;99364.69;10521883;28;20222;-86
2022/08/14 19:50:35;;;;;;;5.93;4.35;;;;;;;28.48;28.41;99374.88;10529952;28;20229;-85
2022/08/14 19:56:00;;;;;;;6.55;4.63;;;;;;;28.07;29.18;99373.34;10521824;28;20220;-86
2022/08/14 20:01:35;;;;;;;6.28;4.15;;;;;;;27.83;29.69;99370.22;10513591;28;20250;-85
2022/08/14 20:07:01;;;;;;;5.05;4.50;;;;;;;27.86;30.56;99377.94;10532153;28;20222;-86
2022/08/14 20:12:23;;;;;;;5.97;4.60;;;;;;;27.84;30.51;99377.59;10577780;27;20226;-86
2022/08/14 20:17:50;;;;;;;6.63;4.90;;;;;;;27.95;30.10;99372.19;10542936;27;20553;-84
2022/08/14 20:23:15;;;;;;;5.00;4.35;;;;;;;27.65;30.24;99373.84;10563366;27;20490;-84
2022/08/14 20:28:38;;;;;;;5.38;4.88;;;;;;;27.66;31.35;99371.75;10535729;27;20225;-83
2022/08/14 20:34:11;;;;;;;8.70;4.72;;;;;;;27.20;32.25;99362.81;10575072;27;20247;-80
2022/08/14 20:39:37;;;;;;;4.68;4.28;;;;;;;27.36;32.47;99368.41;10592637;27;20665;-81
2022/08/14 20:51:22;;;;;;;5.22;4.68;;;;;;;27.41;32.71;99379.38;10531431;27;20206;-81
2022/08/14 20:56:46;;;;;;;6.60;4.90;;;;;;;27.44;32.40;99378.41;10579667;27;20602;-82
2022/08/14 21:02:33;;;;;;;5.95;5.07;;;;;;;26.98;33.80;99374.44;10563567;28;20248;-85
2022/08/14 21:07:55;;;;;;;5.57;4.85;;;;;;;27.10;33.00;99369.84;10560965;28;20217;-81
2022/08/14 21:13:17;;;;;;;5.63;4.82;;;;;;;27.20;32.88;99364.91;10557988;27;20306;-81
2022/08/14 21:18:41;;;;;;;5.82;5.22;;;;;;;27.37;33.12;99375.00;10570130;28;20352;-81
2022/08/14 21:24:03;;;;;;;6.25;4.85;;;;;;;26.79;33.79;99366.94;10596071;27;20225;-81
2022/08/14 21:29:25;;;;;;;6.15;5.22;;;;;;;26.69;34.12;99362.31;10573891;27;20201;-81
2022/08/14 21:34:47;;;;;;;5.65;5.15;;;;;;;26.32;35.38;99372.75;10585274;27;20286;-81
2022/08/14 21:40:12;;;;;;;5.47;4.78;;;;;;;26.16;35.93;99372.88;10558955;28;20310;-82
2022/08/14 21:45:34;;;;;;;6.70;5.40;;;;;;;26.62;34.90;99368.38;10541583;28;20610;-80
2022/08/14 21:50:58;;;;;;;5.38;4.80;;;;;;;26.85;34.40;99365.03;10577500;28;20221;-80
2022/08/14 21:56:21;;;;;;;6.05;5.38;;;;;;;26.24;35.64;99365.59;10537010;28;20201;-81
2022/08/14 22:01:44;;;;;;;5.32;4.85;;;;;;;26.42;34.96;99360.81;10562891;28;20244;-81
2022/08/14 22:07:09;;;;;;;5.65;4.93;;;;;;;26.06;35.75;99355.47;10546839;28;20275;-82
2022/08/14 22:12:32;;;;;;;5.25;4.75;;;;;;;26.40;34.97;99345.25;10561082;28;20243;-82
2022/08/14 22:17:54;;;;;;;5.78;5.20;;;;;;;26.35;35.12;99337.97;10535548;28;20198;-81
2022/08/14 22:23:16;;;;;;;7.15;5.25;;;;;;;25.90;36.27;99331.72;10571474;28;20189;-84
2022/08/14 22:28:39;;;;;;;6.82;5.32;;;;;;;25.91;35.62;99331.25;10579522;28;20231;-82
2022/08/14 22:34:02;;;;;;;6.20;5.60;;;;;;;25.87;35.16;99338.44;10567184;27;20282;-82
2022/08/14 22:39:29;;;;;;;6.38;5.78;;;;;;;26.08;34.62;99329.03;10563870;28;20233;-82
2022/08/14 22:44:52;;;;;;;7.35;6.55;;;;;;;25.85;35.63;99326.56;10552784;28;20286;-84
2022/08/14 22:50:14;;;;;;;6.93;6.22;;;;;;;25.46;36.53;99328.66;10553012;28;20194;-84
2022/08/14 22:55:36;;;;;;;6.70;6.00;;;;;;;25.60;36.04;99333.16;10563679;28;20548;-83
2022/08/14 23:00:59;;;;;;;6.88;6.15;;;;;;;25.40;36.79;99318.97;10566534;28;20225;-84
2022/08/14 23:06:22;;;;;;;6.20;5.65;;;;;;;25.44;36.55;99321.75;10569222;27;20611;-83
2022/08/14 23:11:45;;;;;;;6.72;6.00;;;;;;;25.18;36.09;99318.84;10570390;28;20808;-82
2022/08/14 23:17:08;;;;;;;6.85;5.55;;;;;;;25.51;34.65;99312.84;10551190;28;20547;-84
2022/08/14 23:22:31;;;;;;;6.68;5.95;;;;;;;25.42;33.60;99304.88;10561530;28;20317;-84
2022/08/14 23:27:53;;;;;;;6.72;6.10;;;;;;;25.59;33.15;99299.78;10558376;28;20578;-83
2022/08/14 23:33:18;;;;;;;6.13;5.32;;;;;;;25.28;33.11;99300.41;10542604;28;20267;-81
2022/08/14 23:38:40;;;;;;;6.00;5.38;;;;;;;25.64;32.85;99290.53;10565888;28;20209;-84
2022/08/14 23:44:03;;;;;;;6.53;5.90;;;;;;;25.85;32.46;99284.06;10568572;28;20197;-84
2022/08/14 23:49:27;;;;;;;6.68;5.82;;;;;;;25.70;32.19;99285.81;10548255;28;20254;-82
2022/08/14 23:54:49;;;;;;;6.43;5.70;;;;;;;25.67;32.24;99272.28;10563696;28;20274;-81
